sensor_id;sensor_type;location;lat;lon;timestamp;P1;durP1;ratioP1;P2;durP2;ratioP2
71734;SDS011;59577;52.122;5.406;2023-08-24T00:01:34;1.67;;;1.30;;
71734;SDS011;59577;52.122;5.406;2023-08-24T00:04:01;3.95;;;1.27;;
71734;SDS011;59577;52.122;5.406;2023-08-24T00:06:27;2.03;;;1.00;;
71734;SDS011;59577;52.122;5.406;2023-08-24T00:08:54;2.55;;;1.38;;
71734;SDS011;59577;52.122;5.406;2023-08-24T00:11:21;1.92;;;1.38;;
71734;SDS011;59577;52.122;5.406;2023-08-24T00:13:47;2.87;;;1.37;;
71734;SDS011;59577;52.122;5.406;2023-08-24T00:16:17;1.70;;;1.30;;
71734;SDS011;59577;52.122;5.406;2023-08-24T00:18:46;3.38;;;1.10;;
71734;SDS011;59577;52.122;5.406;2023-08-24T00:21:13;3.65;;;1.15;;
71734;SDS011;59577;52.122;5.406;2023-08-24T00:23:43;3.42;;;1.25;;
71734;SDS011;59577;52.122;5.406;2023-08-24T00:26:10;4.30;;;1.53;;
71734;SDS011;59577;52.122;5.406;2023-08-24T00:28:37;2.75;;;1.17;;
71734;SDS011;59577;52.122;5.406;2023-08-24T00:31:04;1.00;;;0.85;;
71734;SDS011;59577;52.122;5.406;2023-08-24T00:33:33;4.03;;;1.20;;
71734;SDS011;59577;52.122;5.406;2023-08-24T00:36:01;3.05;;;1.27;;
71734;SDS011;59577;52.122;5.406;2023-08-24T00:38:28;2.93;;;1.50;;
71734;SDS011;59577;52.122;5.406;2023-08-24T00:40:55;2.22;;;1.48;;
71734;SDS011;59577;52.122;5.406;2023-08-24T00:43:22;2.47;;;1.25;;
71734;SDS011;59577;52.122;5.406;2023-08-24T00:45:50;3.70;;;1.23;;
71734;SDS011;59577;52.122;5.406;2023-08-24T00:48:18;2.75;;;1.42;;
71734;SDS011;59577;52.122;5.406;2023-08-24T00:50:46;3.03;;;1.50;;
71734;SDS011;59577;52.122;5.406;2023-08-24T00:53:12;1.63;;;1.05;;
71734;SDS011;59577;52.122;5.406;2023-08-24T00:55:39;1.40;;;0.93;;
71734;SDS011;59577;52.122;5.406;2023-08-24T00:58:06;3.90;;;1.30;;
71734;SDS011;59577;52.122;5.406;2023-08-24T01:00:34;2.95;;;1.50;;
71734;SDS011;59577;52.122;5.406;2023-08-24T01:03:01;2.03;;;1.40;;
71734;SDS011;59577;52.122;5.406;2023-08-24T01:05:28;2.47;;;1.23;;
71734;SDS011;59577;52.122;5.406;2023-08-24T01:07:54;1.60;;;1.40;;
71734;SDS011;59577;52.122;5.406;2023-08-24T01:10:21;1.67;;;1.50;;
71734;SDS011;59577;52.122;5.406;2023-08-24T01:13:32;2.35;;;1.65;;
71734;SDS011;59577;52.122;5.406;2023-08-24T01:18:27;2.20;;;1.40;;
71734;SDS011;59577;52.122;5.406;2023-08-24T01:20:56;1.83;;;1.20;;
71734;SDS011;59577;52.122;5.406;2023-08-24T01:26:16;1.40;;;1.00;;
71734;SDS011;59577;52.122;5.406;2023-08-24T01:28:44;3.17;;;1.33;;
71734;SDS011;59577;52.122;5.406;2023-08-24T01:31:15;1.60;;;1.00;;
71734;SDS011;59577;52.122;5.406;2023-08-24T01:33:44;1.95;;;1.20;;
71734;SDS011;59577;52.122;5.406;2023-08-24T01:36:12;3.13;;;1.40;;
71734;SDS011;59577;52.122;5.406;2023-08-24T01:38:40;1.98;;;1.23;;
71734;SDS011;59577;52.122;5.406;2023-08-24T01:41:22;4.80;;;1.60;;
71734;SDS011;59577;52.122;5.406;2023-08-24T01:43:53;1.40;;;1.10;;
71734;SDS011;59577;52.122;5.406;2023-08-24T01:46:24;2.63;;;1.20;;
71734;SDS011;59577;52.122;5.406;2023-08-24T01:48:52;3.15;;;1.00;;
71734;SDS011;59577;52.122;5.406;2023-08-24T01:51:20;2.00;;;1.42;;
71734;SDS011;59577;52.122;5.406;2023-08-24T01:53:48;2.23;;;1.30;;
71734;SDS011;59577;52.122;5.406;2023-08-24T01:56:16;3.03;;;1.35;;
71734;SDS011;59577;52.122;5.406;2023-08-24T01:58:43;6.00;;;1.67;;
71734;SDS011;59577;52.122;5.406;2023-08-24T02:01:10;2.05;;;1.40;;
71734;SDS011;59577;52.122;5.406;2023-08-24T02:03:37;2.67;;;1.25;;
71734;SDS011;59577;52.122;5.406;2023-08-24T02:06:06;1.67;;;1.43;;
71734;SDS011;59577;52.122;5.406;2023-08-24T02:08:33;4.30;;;1.60;;
71734;SDS011;59577;52.122;5.406;2023-08-24T02:11:00;1.60;;;1.30;;
71734;SDS011;59577;52.122;5.406;2023-08-24T02:13:26;1.50;;;1.40;;
71734;SDS011;59577;52.122;5.406;2023-08-24T02:16:07;2.50;;;1.20;;
71734;SDS011;59577;52.122;5.406;2023-08-24T02:18:38;1.87;;;1.23;;
71734;SDS011;59577;52.122;5.406;2023-08-24T02:21:08;1.70;;;1.38;;
71734;SDS011;59577;52.122;5.406;2023-08-24T02:23:38;2.50;;;1.60;;
71734;SDS011;59577;52.122;5.406;2023-08-24T02:26:05;2.63;;;1.38;;
71734;SDS011;59577;52.122;5.406;2023-08-24T02:28:33;3.45;;;1.80;;
71734;SDS011;59577;52.122;5.406;2023-08-24T02:31:04;1.97;;;1.27;;
71734;SDS011;59577;52.122;5.406;2023-08-24T02:33:31;4.80;;;2.47;;
71734;SDS011;59577;52.122;5.406;2023-08-24T02:35:59;4.38;;;3.08;;
71734;SDS011;59577;52.122;5.406;2023-08-24T02:38:25;4.45;;;3.55;;
71734;SDS011;59577;52.122;5.406;2023-08-24T02:41:02;7.15;;;3.80;;
71734;SDS011;59577;52.122;5.406;2023-08-24T02:43:30;4.17;;;3.77;;
71734;SDS011;59577;52.122;5.406;2023-08-24T02:46:03;6.30;;;3.72;;
71734;SDS011;59577;52.122;5.406;2023-08-24T02:48:32;5.72;;;3.92;;
71734;SDS011;59577;52.122;5.406;2023-08-24T02:50:59;7.53;;;4.00;;
71734;SDS011;59577;52.122;5.406;2023-08-24T02:53:26;5.20;;;3.45;;
71734;SDS011;59577;52.122;5.406;2023-08-24T02:55:54;6.53;;;3.53;;
71734;SDS011;59577;52.122;5.406;2023-08-24T02:58:21;4.68;;;4.18;;
71734;SDS011;59577;52.122;5.406;2023-08-24T03:00:48;4.93;;;3.58;;
71734;SDS011;59577;52.122;5.406;2023-08-24T03:03:15;4.68;;;3.70;;
71734;SDS011;59577;52.122;5.406;2023-08-24T03:05:52;5.97;;;3.97;;
71734;SDS011;59577;52.122;5.406;2023-08-24T03:08:19;4.37;;;3.73;;
71734;SDS011;59577;52.122;5.406;2023-08-24T03:10:45;4.93;;;3.38;;
71734;SDS011;59577;52.122;5.406;2023-08-24T03:13:13;4.10;;;3.40;;
71734;SDS011;59577;52.122;5.406;2023-08-24T03:15:40;5.35;;;3.30;;
71734;SDS011;59577;52.122;5.406;2023-08-24T03:18:06;5.25;;;3.83;;
71734;SDS011;59577;52.122;5.406;2023-08-24T03:20:33;4.37;;;3.00;;
71734;SDS011;59577;52.122;5.406;2023-08-24T03:23:00;4.47;;;3.28;;
71734;SDS011;59577;52.122;5.406;2023-08-24T03:25:26;7.75;;;4.20;;
71734;SDS011;59577;52.122;5.406;2023-08-24T03:27:53;9.27;;;4.07;;
71734;SDS011;59577;52.122;5.406;2023-08-24T03:30:20;4.90;;;3.83;;
71734;SDS011;59577;52.122;5.406;2023-08-24T03:32:47;8.33;;;4.07;;
71734;SDS011;59577;52.122;5.406;2023-08-24T03:35:13;4.82;;;4.20;;
71734;SDS011;59577;52.122;5.406;2023-08-24T03:37:41;6.70;;;3.95;;
71734;SDS011;59577;52.122;5.406;2023-08-24T03:40:07;6.03;;;3.85;;
71734;SDS011;59577;52.122;5.406;2023-08-24T03:42:34;5.35;;;4.32;;
71734;SDS011;59577;52.122;5.406;2023-08-24T03:45:01;5.90;;;4.40;;
71734;SDS011;59577;52.122;5.406;2023-08-24T03:47:27;5.97;;;3.70;;
71734;SDS011;59577;52.122;5.406;2023-08-24T03:49:54;4.05;;;3.33;;
71734;SDS011;59577;52.122;5.406;2023-08-24T03:52:21;8.23;;;4.07;;
71734;SDS011;59577;52.122;5.406;2023-08-24T03:54:48;4.22;;;3.17;;
71734;SDS011;59577;52.122;5.406;2023-08-24T03:57:15;8.00;;;3.77;;
71734;SDS011;59577;52.122;5.406;2023-08-24T03:59:42;5.47;;;3.50;;
71734;SDS011;59577;52.122;5.406;2023-08-24T04:02:08;7.28;;;3.55;;
71734;SDS011;59577;52.122;5.406;2023-08-24T04:04:35;6.68;;;3.50;;
71734;SDS011;59577;52.122;5.406;2023-08-24T04:07:01;6.10;;;3.15;;
71734;SDS011;59577;52.122;5.406;2023-08-24T04:09:29;5.07;;;3.20;;
71734;SDS011;59577;52.122;5.406;2023-08-24T04:11:55;4.20;;;3.50;;
71734;SDS011;59577;52.122;5.406;2023-08-24T04:14:22;5.47;;;3.28;;
71734;SDS011;59577;52.122;5.406;2023-08-24T04:16:48;7.40;;;3.70;;
71734;SDS011;59577;52.122;5.406;2023-08-24T04:19:15;4.30;;;3.90;;
71734;SDS011;59577;52.122;5.406;2023-08-24T04:21:42;4.20;;;3.80;;
71734;SDS011;59577;52.122;5.406;2023-08-24T04:24:08;6.45;;;3.72;;
71734;SDS011;59577;52.122;5.406;2023-08-24T04:26:35;5.40;;;4.15;;
71734;SDS011;59577;52.122;5.406;2023-08-24T04:29:02;4.53;;;3.40;;
71734;SDS011;59577;52.122;5.406;2023-08-24T04:31:29;5.93;;;4.05;;
71734;SDS011;59577;52.122;5.406;2023-08-24T04:33:56;4.90;;;3.30;;
71734;SDS011;59577;52.122;5.406;2023-08-24T04:36:22;4.45;;;3.45;;
71734;SDS011;59577;52.122;5.406;2023-08-24T04:38:49;5.22;;;3.95;;
71734;SDS011;59577;52.122;5.406;2023-08-24T04:41:16;4.90;;;4.10;;
71734;SDS011;59577;52.122;5.406;2023-08-24T04:43:42;3.85;;;3.03;;
71734;SDS011;59577;52.122;5.406;2023-08-24T04:46:18;6.07;;;4.07;;
71734;SDS011;59577;52.122;5.406;2023-08-24T04:48:44;5.13;;;3.30;;
71734;SDS011;59577;52.122;5.406;2023-08-24T04:51:11;6.03;;;3.92;;
71734;SDS011;59577;52.122;5.406;2023-08-24T04:53:37;5.07;;;3.97;;
71734;SDS011;59577;52.122;5.406;2023-08-24T04:56:04;5.72;;;4.30;;
71734;SDS011;59577;52.122;5.406;2023-08-24T04:58:32;7.10;;;5.07;;
71734;SDS011;59577;52.122;5.406;2023-08-24T05:00:59;4.25;;;3.85;;
71734;SDS011;59577;52.122;5.406;2023-08-24T05:03:26;5.43;;;4.00;;
71734;SDS011;59577;52.122;5.406;2023-08-24T05:05:52;4.65;;;3.60;;
71734;SDS011;59577;52.122;5.406;2023-08-24T05:08:19;5.80;;;3.38;;
71734;SDS011;59577;52.122;5.406;2023-08-24T05:10:45;5.00;;;3.60;;
71734;SDS011;59577;52.122;5.406;2023-08-24T05:13:12;5.60;;;3.42;;
71734;SDS011;59577;52.122;5.406;2023-08-24T05:15:39;4.93;;;3.40;;
71734;SDS011;59577;52.122;5.406;2023-08-24T05:18:06;4.65;;;3.42;;
71734;SDS011;59577;52.122;5.406;2023-08-24T05:20:32;4.78;;;4.30;;
71734;SDS011;59577;52.122;5.406;2023-08-24T05:22:59;4.67;;;3.57;;
71734;SDS011;59577;52.122;5.406;2023-08-24T05:25:26;3.67;;;3.35;;
71734;SDS011;59577;52.122;5.406;2023-08-24T05:27:53;6.60;;;3.88;;
71734;SDS011;59577;52.122;5.406;2023-08-24T05:30:19;7.53;;;3.95;;
71734;SDS011;59577;52.122;5.406;2023-08-24T05:32:46;7.15;;;4.45;;
71734;SDS011;59577;52.122;5.406;2023-08-24T05:35:12;6.27;;;4.47;;
71734;SDS011;59577;52.122;5.406;2023-08-24T05:37:39;5.75;;;4.10;;
71734;SDS011;59577;52.122;5.406;2023-08-24T05:40:06;5.63;;;3.83;;
71734;SDS011;59577;52.122;5.406;2023-08-24T05:42:33;6.53;;;4.38;;
71734;SDS011;59577;52.122;5.406;2023-08-24T05:44:59;4.65;;;3.58;;
71734;SDS011;59577;52.122;5.406;2023-08-24T05:47:26;6.97;;;4.50;;
71734;SDS011;59577;52.122;5.406;2023-08-24T05:49:53;4.97;;;3.72;;
71734;SDS011;59577;52.122;5.406;2023-08-24T05:52:19;7.13;;;4.22;;
71734;SDS011;59577;52.122;5.406;2023-08-24T05:54:46;11.85;;;5.28;;
71734;SDS011;59577;52.122;5.406;2023-08-24T05:57:12;9.57;;;4.47;;
71734;SDS011;59577;52.122;5.406;2023-08-24T05:59:39;7.63;;;4.83;;
71734;SDS011;59577;52.122;5.406;2023-08-24T06:02:05;10.30;;;5.47;;
71734;SDS011;59577;52.122;5.406;2023-08-24T06:04:32;7.22;;;4.78;;
71734;SDS011;59577;52.122;5.406;2023-08-24T06:06:58;6.57;;;4.70;;
71734;SDS011;59577;52.122;5.406;2023-08-24T06:09:25;7.00;;;4.80;;
71734;SDS011;59577;52.122;5.406;2023-08-24T06:11:52;12.63;;;4.43;;
71734;SDS011;59577;52.122;5.406;2023-08-24T06:14:18;7.20;;;4.13;;
71734;SDS011;59577;52.122;5.406;2023-08-24T06:16:45;5.68;;;4.43;;
71734;SDS011;59577;52.122;5.406;2023-08-24T06:19:12;11.60;;;4.93;;
71734;SDS011;59577;52.122;5.406;2023-08-24T06:21:38;8.35;;;4.28;;
71734;SDS011;59577;52.122;5.406;2023-08-24T06:24:05;4.37;;;3.97;;
71734;SDS011;59577;52.122;5.406;2023-08-24T06:26:32;6.45;;;4.15;;
71734;SDS011;59577;52.122;5.406;2023-08-24T06:28:58;5.13;;;3.95;;
71734;SDS011;59577;52.122;5.406;2023-08-24T06:31:25;9.80;;;4.55;;
71734;SDS011;59577;52.122;5.406;2023-08-24T06:36:34;7.17;;;3.63;;
71734;SDS011;59577;52.122;5.406;2023-08-24T06:39:01;5.13;;;4.40;;
71734;SDS011;59577;52.122;5.406;2023-08-24T06:41:34;7.88;;;4.32;;
71734;SDS011;59577;52.122;5.406;2023-08-24T06:44:01;5.97;;;4.38;;
71734;SDS011;59577;52.122;5.406;2023-08-24T06:46:29;11.55;;;5.03;;
71734;SDS011;59577;52.122;5.406;2023-08-24T06:48:56;14.30;;;6.03;;
71734;SDS011;59577;52.122;5.406;2023-08-24T06:51:24;8.82;;;5.40;;
71734;SDS011;59577;52.122;5.406;2023-08-24T06:53:51;9.90;;;6.07;;
71734;SDS011;59577;52.122;5.406;2023-08-24T06:56:18;8.13;;;5.35;;
71734;SDS011;59577;52.122;5.406;2023-08-24T06:58:47;7.00;;;5.50;;
71734;SDS011;59577;52.122;5.406;2023-08-24T07:01:14;9.10;;;5.33;;
71734;SDS011;59577;52.122;5.406;2023-08-24T07:04:15;8.52;;;5.53;;
71734;SDS011;59577;52.122;5.406;2023-08-24T07:06:44;9.45;;;5.57;;
71734;SDS011;59577;52.122;5.406;2023-08-24T07:09:12;7.85;;;5.57;;
71734;SDS011;59577;52.122;5.406;2023-08-24T07:11:39;12.82;;;5.90;;
71734;SDS011;59577;52.122;5.406;2023-08-24T07:14:05;8.43;;;6.10;;
71734;SDS011;59577;52.122;5.406;2023-08-24T07:16:32;7.93;;;6.10;;
71734;SDS011;59577;52.122;5.406;2023-08-24T07:19:12;8.85;;;6.55;;
71734;SDS011;59577;52.122;5.406;2023-08-24T07:21:43;7.85;;;6.32;;
71734;SDS011;59577;52.122;5.406;2023-08-24T07:24:09;10.50;;;6.88;;
71734;SDS011;59577;52.122;5.406;2023-08-24T07:26:36;9.40;;;6.13;;
71734;SDS011;59577;52.122;5.406;2023-08-24T07:29:03;9.60;;;6.15;;
71734;SDS011;59577;52.122;5.406;2023-08-24T07:31:29;7.32;;;5.90;;
71734;SDS011;59577;52.122;5.406;2023-08-24T07:34:00;10.95;;;6.22;;
71734;SDS011;59577;52.122;5.406;2023-08-24T07:36:28;9.63;;;6.00;;
71734;SDS011;59577;52.122;5.406;2023-08-24T07:38:54;12.17;;;6.43;;
71734;SDS011;59577;52.122;5.406;2023-08-24T07:41:21;10.25;;;6.35;;
71734;SDS011;59577;52.122;5.406;2023-08-24T07:43:48;9.98;;;6.18;;
71734;SDS011;59577;52.122;5.406;2023-08-24T07:46:15;7.10;;;6.40;;
71734;SDS011;59577;52.122;5.406;2023-08-24T07:48:42;10.68;;;5.93;;
71734;SDS011;59577;52.122;5.406;2023-08-24T07:51:08;7.03;;;6.37;;
71734;SDS011;59577;52.122;5.406;2023-08-24T07:53:35;8.90;;;6.60;;
71734;SDS011;59577;52.122;5.406;2023-08-24T07:56:01;10.43;;;6.90;;
71734;SDS011;59577;52.122;5.406;2023-08-24T07:58:28;15.95;;;6.45;;
71734;SDS011;59577;52.122;5.406;2023-08-24T08:00:58;9.98;;;6.38;;
71734;SDS011;59577;52.122;5.406;2023-08-24T08:03:26;7.20;;;6.50;;
71734;SDS011;59577;52.122;5.406;2023-08-24T08:05:53;12.63;;;6.60;;
71734;SDS011;59577;52.122;5.406;2023-08-24T08:08:21;9.70;;;6.88;;
71734;SDS011;59577;52.122;5.406;2023-08-24T08:10:47;7.35;;;6.65;;
71734;SDS011;59577;52.122;5.406;2023-08-24T08:13:24;7.78;;;6.40;;
71734;SDS011;59577;52.122;5.406;2023-08-24T08:15:50;8.07;;;6.83;;
71734;SDS011;59577;52.122;5.406;2023-08-24T08:18:23;8.35;;;6.28;;
71734;SDS011;59577;52.122;5.406;2023-08-24T08:20:50;8.50;;;6.45;;
71734;SDS011;59577;52.122;5.406;2023-08-24T08:23:18;7.38;;;6.68;;
71734;SDS011;59577;52.122;5.406;2023-08-24T08:25:44;8.68;;;6.80;;
71734;SDS011;59577;52.122;5.406;2023-08-24T08:28:11;7.83;;;6.30;;
71734;SDS011;59577;52.122;5.406;2023-08-24T08:30:38;7.45;;;6.75;;
71734;SDS011;59577;52.122;5.406;2023-08-24T08:33:04;8.93;;;6.88;;
71734;SDS011;59577;52.122;5.406;2023-08-24T08:35:31;11.65;;;7.35;;
71734;SDS011;59577;52.122;5.406;2023-08-24T08:37:57;8.48;;;7.57;;
71734;SDS011;59577;52.122;5.406;2023-08-24T08:40:24;8.23;;;7.10;;
71734;SDS011;59577;52.122;5.406;2023-08-24T08:42:57;9.25;;;7.47;;
71734;SDS011;59577;52.122;5.406;2023-08-24T08:45:24;8.80;;;7.93;;
71734;SDS011;59577;52.122;5.406;2023-08-24T08:47:53;8.30;;;7.40;;
71734;SDS011;59577;52.122;5.406;2023-08-24T08:50:24;10.32;;;7.30;;
71734;SDS011;59577;52.122;5.406;2023-08-24T08:52:55;8.30;;;6.83;;
71734;SDS011;59577;52.122;5.406;2023-08-24T08:55:22;8.23;;;6.45;;
71734;SDS011;59577;52.122;5.406;2023-08-24T08:57:48;10.68;;;7.47;;
71734;SDS011;59577;52.122;5.406;2023-08-24T09:00:15;9.05;;;7.40;;
71734;SDS011;59577;52.122;5.406;2023-08-24T09:02:45;9.77;;;7.32;;
71734;SDS011;59577;52.122;5.406;2023-08-24T09:05:14;7.10;;;6.40;;
71734;SDS011;59577;52.122;5.406;2023-08-24T09:07:41;9.38;;;6.57;;
71734;SDS011;59577;52.122;5.406;2023-08-24T09:10:08;9.27;;;7.28;;
71734;SDS011;59577;52.122;5.406;2023-08-24T09:12:35;10.40;;;7.00;;
71734;SDS011;59577;52.122;5.406;2023-08-24T09:15:08;8.98;;;6.95;;
71734;SDS011;59577;52.122;5.406;2023-08-24T09:17:46;8.03;;;6.10;;
71734;SDS011;59577;52.122;5.406;2023-08-24T09:20:15;9.07;;;6.63;;
71734;SDS011;59577;52.122;5.406;2023-08-24T09:22:42;8.63;;;7.20;;
71734;SDS011;59577;52.122;5.406;2023-08-24T09:25:10;7.97;;;7.10;;
71734;SDS011;59577;52.122;5.406;2023-08-24T09:27:37;8.50;;;7.13;;
71734;SDS011;59577;52.122;5.406;2023-08-24T09:30:03;7.83;;;5.77;;
71734;SDS011;59577;52.122;5.406;2023-08-24T09:32:36;8.32;;;6.43;;
71734;SDS011;59577;52.122;5.406;2023-08-24T09:35:03;7.32;;;6.63;;
71734;SDS011;59577;52.122;5.406;2023-08-24T09:37:34;8.10;;;6.40;;
71734;SDS011;59577;52.122;5.406;2023-08-24T09:40:02;7.32;;;6.30;;
71734;SDS011;59577;52.122;5.406;2023-08-24T09:42:37;15.10;;;7.33;;
71734;SDS011;59577;52.122;5.406;2023-08-24T09:45:11;6.97;;;6.00;;
71734;SDS011;59577;52.122;5.406;2023-08-24T09:47:38;6.82;;;6.13;;
71734;SDS011;59577;52.122;5.406;2023-08-24T09:50:06;8.77;;;6.70;;
71734;SDS011;59577;52.122;5.406;2023-08-24T09:52:34;8.00;;;5.90;;
71734;SDS011;59577;52.122;5.406;2023-08-24T09:55:17;7.60;;;6.13;;
71734;SDS011;59577;52.122;5.406;2023-08-24T09:57:48;12.07;;;6.40;;
71734;SDS011;59577;52.122;5.406;2023-08-24T10:00:21;8.05;;;5.43;;
71734;SDS011;59577;52.122;5.406;2023-08-24T10:02:52;6.97;;;6.28;;
71734;SDS011;59577;52.122;5.406;2023-08-24T10:05:23;12.80;;;6.72;;
71734;SDS011;59577;52.122;5.406;2023-08-24T10:08:06;10.97;;;6.63;;
71734;SDS011;59577;52.122;5.406;2023-08-24T10:10:35;10.38;;;6.30;;
71734;SDS011;59577;52.122;5.406;2023-08-24T10:13:06;7.45;;;6.68;;
71734;SDS011;59577;52.122;5.406;2023-08-24T10:15:38;11.23;;;6.60;;
71734;SDS011;59577;52.122;5.406;2023-08-24T10:18:14;12.98;;;7.50;;
71734;SDS011;59577;52.122;5.406;2023-08-24T10:20:41;11.83;;;6.97;;
71734;SDS011;59577;52.122;5.406;2023-08-24T10:23:12;8.27;;;6.60;;
71734;SDS011;59577;52.122;5.406;2023-08-24T10:25:41;9.13;;;6.90;;
71734;SDS011;59577;52.122;5.406;2023-08-24T10:28:10;7.47;;;6.50;;
71734;SDS011;59577;52.122;5.406;2023-08-24T10:30:38;7.80;;;6.03;;
71734;SDS011;59577;52.122;5.406;2023-08-24T10:33:06;10.00;;;6.40;;
71734;SDS011;59577;52.122;5.406;2023-08-24T10:35:34;9.02;;;6.38;;
71734;SDS011;59577;52.122;5.406;2023-08-24T10:38:03;9.48;;;7.25;;
71734;SDS011;59577;52.122;5.406;2023-08-24T10:40:31;9.10;;;8.20;;
71734;SDS011;59577;52.122;5.406;2023-08-24T10:43:02;10.02;;;8.40;;
71734;SDS011;59577;52.122;5.406;2023-08-24T10:46:05;12.77;;;8.00;;
71734;SDS011;59577;52.122;5.406;2023-08-24T10:48:25;11.45;;;8.60;;
71734;SDS011;59577;52.122;5.406;2023-08-24T10:53:51;17.05;;;9.25;;
71734;SDS011;59577;52.122;5.406;2023-08-24T10:56:20;10.52;;;9.38;;
71734;SDS011;59577;52.122;5.406;2023-08-24T10:58:47;11.93;;;8.83;;
71734;SDS011;59577;52.122;5.406;2023-08-24T11:01:34;11.88;;;9.35;;
71734;SDS011;59577;52.122;5.406;2023-08-24T11:04:05;13.70;;;8.82;;
71734;SDS011;59577;52.122;5.406;2023-08-24T11:06:34;11.10;;;8.63;;
71734;SDS011;59577;52.122;5.406;2023-08-24T11:09:08;17.08;;;9.80;;
71734;SDS011;59577;52.122;5.406;2023-08-24T11:11:41;14.10;;;9.27;;
71734;SDS011;59577;52.122;5.406;2023-08-24T11:14:15;13.95;;;9.27;;
71734;SDS011;59577;52.122;5.406;2023-08-24T11:17:16;12.82;;;8.80;;
71734;SDS011;59577;52.122;5.406;2023-08-24T11:19:48;17.20;;;9.32;;
71734;SDS011;59577;52.122;5.406;2023-08-24T11:22:17;11.45;;;8.48;;
71734;SDS011;59577;52.122;5.406;2023-08-24T11:24:44;14.87;;;8.37;;
71734;SDS011;59577;52.122;5.406;2023-08-24T11:27:11;12.05;;;8.73;;
71734;SDS011;59577;52.122;5.406;2023-08-24T11:29:38;10.70;;;8.02;;
71734;SDS011;59577;52.122;5.406;2023-08-24T11:32:04;9.43;;;8.00;;
71734;SDS011;59577;52.122;5.406;2023-08-24T11:34:31;12.38;;;9.05;;
71734;SDS011;59577;52.122;5.406;2023-08-24T11:37:00;12.87;;;9.27;;
71734;SDS011;59577;52.122;5.406;2023-08-24T11:39:27;13.05;;;9.27;;
71734;SDS011;59577;52.122;5.406;2023-08-24T11:42:01;15.52;;;9.93;;
71734;SDS011;59577;52.122;5.406;2023-08-24T11:44:43;17.40;;;9.95;;
71734;SDS011;59577;52.122;5.406;2023-08-24T11:47:13;15.07;;;9.63;;
71734;SDS011;59577;52.122;5.406;2023-08-24T11:49:40;17.53;;;8.67;;
71734;SDS011;59577;52.122;5.406;2023-08-24T11:52:07;14.63;;;9.10;;
71734;SDS011;59577;52.122;5.406;2023-08-24T11:54:35;15.48;;;9.57;;
71734;SDS011;59577;52.122;5.406;2023-08-24T11:57:06;10.88;;;9.10;;
71734;SDS011;59577;52.122;5.406;2023-08-24T11:59:35;13.90;;;9.77;;
71734;SDS011;59577;52.122;5.406;2023-08-24T12:02:04;11.00;;;9.40;;
71734;SDS011;59577;52.122;5.406;2023-08-24T12:04:39;12.10;;;9.77;;
71734;SDS011;59577;52.122;5.406;2023-08-24T12:07:12;11.57;;;9.80;;
71734;SDS011;59577;52.122;5.406;2023-08-24T12:09:39;17.23;;;10.07;;
71734;SDS011;59577;52.122;5.406;2023-08-24T12:12:13;13.60;;;10.00;;
71734;SDS011;59577;52.122;5.406;2023-08-24T12:14:44;14.33;;;9.30;;
71734;SDS011;59577;52.122;5.406;2023-08-24T12:17:13;11.00;;;8.68;;
71734;SDS011;59577;52.122;5.406;2023-08-24T12:19:41;13.48;;;9.75;;
71734;SDS011;59577;52.122;5.406;2023-08-24T12:22:14;11.15;;;9.05;;
71734;SDS011;59577;52.122;5.406;2023-08-24T12:24:46;15.02;;;9.30;;
71734;SDS011;59577;52.122;5.406;2023-08-24T12:27:18;15.43;;;9.77;;
71734;SDS011;59577;52.122;5.406;2023-08-24T12:29:49;13.70;;;9.60;;
71734;SDS011;59577;52.122;5.406;2023-08-24T12:32:17;14.90;;;9.60;;
71734;SDS011;59577;52.122;5.406;2023-08-24T12:34:46;24.10;;;11.15;;
71734;SDS011;59577;52.122;5.406;2023-08-24T12:37:13;13.23;;;9.82;;
71734;SDS011;59577;52.122;5.406;2023-08-24T12:39:40;16.70;;;9.70;;
71734;SDS011;59577;52.122;5.406;2023-08-24T12:42:06;18.67;;;9.48;;
71734;SDS011;59577;52.122;5.406;2023-08-24T12:44:33;11.93;;;8.82;;
71734;SDS011;59577;52.122;5.406;2023-08-24T12:47:00;12.95;;;9.82;;
71734;SDS011;59577;52.122;5.406;2023-08-24T12:49:26;16.77;;;9.85;;
71734;SDS011;59577;52.122;5.406;2023-08-24T12:51:53;12.57;;;9.53;;
71734;SDS011;59577;52.122;5.406;2023-08-24T12:54:20;15.07;;;9.57;;
71734;SDS011;59577;52.122;5.406;2023-08-24T12:56:46;15.38;;;9.95;;
71734;SDS011;59577;52.122;5.406;2023-08-24T12:59:13;12.02;;;9.27;;
71734;SDS011;59577;52.122;5.406;2023-08-24T13:01:39;12.82;;;9.70;;
71734;SDS011;59577;52.122;5.406;2023-08-24T13:04:06;14.37;;;9.33;;
71734;SDS011;59577;52.122;5.406;2023-08-24T13:06:33;16.10;;;9.60;;
71734;SDS011;59577;52.122;5.406;2023-08-24T13:09:00;15.15;;;10.00;;
71734;SDS011;59577;52.122;5.406;2023-08-24T13:11:27;12.63;;;10.27;;
71734;SDS011;59577;52.122;5.406;2023-08-24T13:13:53;18.17;;;9.85;;
71734;SDS011;59577;52.122;5.406;2023-08-24T13:16:20;12.17;;;8.93;;
71734;SDS011;59577;52.122;5.406;2023-08-24T13:18:47;12.23;;;9.60;;
71734;SDS011;59577;52.122;5.406;2023-08-24T13:21:14;16.02;;;9.68;;
71734;SDS011;59577;52.122;5.406;2023-08-24T13:23:43;10.88;;;9.57;;
71734;SDS011;59577;52.122;5.406;2023-08-24T13:26:19;15.27;;;10.10;;
71734;SDS011;59577;52.122;5.406;2023-08-24T13:28:47;12.33;;;9.33;;
71734;SDS011;59577;52.122;5.406;2023-08-24T13:31:14;15.20;;;10.15;;
71734;SDS011;59577;52.122;5.406;2023-08-24T13:33:41;14.00;;;9.43;;
71734;SDS011;59577;52.122;5.406;2023-08-24T13:36:07;11.20;;;9.77;;
71734;SDS011;59577;52.122;5.406;2023-08-24T13:38:34;12.35;;;10.68;;
71734;SDS011;59577;52.122;5.406;2023-08-24T13:41:01;16.40;;;10.77;;
71734;SDS011;59577;52.122;5.406;2023-08-24T13:43:28;15.23;;;10.43;;
71734;SDS011;59577;52.122;5.406;2023-08-24T13:45:54;14.77;;;11.07;;
71734;SDS011;59577;52.122;5.406;2023-08-24T13:48:21;13.07;;;10.52;;
71734;SDS011;59577;52.122;5.406;2023-08-24T13:50:50;13.15;;;10.32;;
71734;SDS011;59577;52.122;5.406;2023-08-24T13:53:20;15.70;;;11.03;;
71734;SDS011;59577;52.122;5.406;2023-08-24T13:55:47;15.20;;;11.13;;
71734;SDS011;59577;52.122;5.406;2023-08-24T13:58:14;16.10;;;11.82;;
71734;SDS011;59577;52.122;5.406;2023-08-24T14:00:40;19.05;;;10.32;;
71734;SDS011;59577;52.122;5.406;2023-08-24T14:03:07;15.38;;;11.50;;
71734;SDS011;59577;52.122;5.406;2023-08-24T14:05:40;15.53;;;11.67;;
71734;SDS011;59577;52.122;5.406;2023-08-24T14:08:06;13.02;;;11.65;;
71734;SDS011;59577;52.122;5.406;2023-08-24T14:10:34;14.68;;;10.80;;
71734;SDS011;59577;52.122;5.406;2023-08-24T14:13:01;15.63;;;12.38;;
71734;SDS011;59577;52.122;5.406;2023-08-24T14:15:30;15.52;;;13.57;;
71734;SDS011;59577;52.122;5.406;2023-08-24T14:17:57;16.20;;;13.47;;
71734;SDS011;59577;52.122;5.406;2023-08-24T14:20:23;18.48;;;13.18;;
71734;SDS011;59577;52.122;5.406;2023-08-24T14:22:50;17.67;;;13.10;;
71734;SDS011;59577;52.122;5.406;2023-08-24T14:25:17;19.70;;;13.52;;
71734;SDS011;59577;52.122;5.406;2023-08-24T14:27:44;19.80;;;13.52;;
71734;SDS011;59577;52.122;5.406;2023-08-24T14:30:28;20.27;;;14.83;;
71734;SDS011;59577;52.122;5.406;2023-08-24T14:32:54;18.40;;;15.30;;
71734;SDS011;59577;52.122;5.406;2023-08-24T14:35:21;19.17;;;15.10;;
71734;SDS011;59577;52.122;5.406;2023-08-24T14:37:47;17.63;;;13.68;;
71734;SDS011;59577;52.122;5.406;2023-08-24T14:40:14;20.08;;;13.82;;
71734;SDS011;59577;52.122;5.406;2023-08-24T14:42:42;18.17;;;12.27;;
71734;SDS011;59577;52.122;5.406;2023-08-24T14:45:09;17.33;;;12.32;;
71734;SDS011;59577;52.122;5.406;2023-08-24T14:47:35;17.42;;;12.13;;
71734;SDS011;59577;52.122;5.406;2023-08-24T14:50:02;18.75;;;11.93;;
71734;SDS011;59577;52.122;5.406;2023-08-24T14:52:29;12.32;;;11.13;;
71734;SDS011;59577;52.122;5.406;2023-08-24T14:54:56;16.67;;;10.40;;
71734;SDS011;59577;52.122;5.406;2023-08-24T14:57:22;12.25;;;10.15;;
71734;SDS011;59577;52.122;5.406;2023-08-24T14:59:49;10.48;;;9.38;;